Time;durP1;ratioP1;P1;durP2;ratioP2;P2;SDS_P1;SDS_P2;PMS_P1;PMS_P2;Temp;Humidity;BMP_temperature;BMP_pressure;BME280_temperature;BME280_humidity;BME280_pressure;Samples;Min_cycle;Max_cycle;Signal;HPM_P1;HPM_P2
2022/06/24 00:00:12;;;;;;;9.52;7.80;;;20.10;99.90;;;;;;5058520;28;20087;-77
2022/06/24 00:02:39;;;;;;;11.05;7.43;;;20.00;99.90;;;;;;5076480;28;20044;-77
2022/06/24 00:05:11;;;;;;;8.25;7.03;;;20.00;99.90;;;;;;5058240;28;20090;-77
2022/06/24 00:07:48;;;;;;;8.77;7.38;;;19.90;99.90;;;;;;5076217;28;20055;-77
2022/06/24 00:10:20;;;;;;;8.07;7.03;;;19.90;99.90;;;;;;5058175;28;20387;-77
2022/06/24 00:12:46;;;;;;;9.60;7.70;;;19.80;99.90;;;;;;5076051;28;20101;-77
2022/06/24 00:15:12;;;;;;;12.38;7.88;;;19.80;99.90;;;;;;5076067;28;20044;-77
2022/06/24 00:17:38;;;;;;;10.88;8.18;;;19.70;99.90;;;;;;5075993;28;20090;-77
2022/06/24 00:20:15;;;;;;;11.13;7.68;;;19.70;99.90;;;;;;5076006;28;20040;-77
2022/06/24 00:22:48;;;;;;;10.02;7.82;;;19.60;99.90;;;;;;5075896;28;20041;-77
2022/06/24 00:25:25;;;;;;;8.88;7.70;;;19.60;99.90;;;;;;5075933;28;20070;-77
2022/06/24 00:28:08;;;;;;;12.60;8.32;;;19.60;99.90;;;;;;5075841;28;20075;-77
2022/06/24 00:30:40;;;;;;;8.68;7.60;;;19.60;99.90;;;;;;5075718;28;20078;-77
2022/06/24 00:33:20;;;;;;;10.82;7.72;;;19.60;99.90;;;;;;5075548;28;20094;-77
2022/06/24 00:35:51;;;;;;;9.15;7.90;;;19.60;99.90;;;;;;5057869;28;20083;-77
2022/06/24 00:38:31;;;;;;;10.35;8.30;;;19.60;99.90;;;;;;5074630;28;20094;-77
2022/06/24 00:41:01;;;;;;;13.70;8.15;;;19.50;99.90;;;;;;5075646;28;20028;-77
2022/06/24 00:43:38;;;;;;;9.63;7.95;;;19.50;99.90;;;;;;5075301;28;20087;-77
2022/06/24 00:46:24;;;;;;;8.68;7.40;;;19.40;99.90;;;;;;5075516;28;20059;-77
2022/06/24 00:48:57;;;;;;;9.38;6.93;;;19.40;99.90;;;;;;5057948;28;20056;-77
2022/06/24 00:51:34;;;;;;;9.35;7.38;;;19.30;99.90;;;;;;5057537;28;20112;-77
2022/06/24 00:54:10;;;;;;;9.05;6.95;;;19.30;99.90;;;;;;5075255;28;20039;-77
2022/06/24 00:56:36;;;;;;;8.57;6.75;;;19.20;99.90;;;;;;5075681;28;20419;-77
2022/06/24 00:59:04;;;;;;;12.43;7.53;;;19.20;99.90;;;;;;5075031;28;20461;-77
2022/06/24 01:01:36;;;;;;;12.68;8.02;;;19.20;99.90;;;;;;5057146;28;20093;-77
2022/06/24 01:04:04;;;;;;;10.98;7.97;;;19.20;99.90;;;;;;5075069;28;20095;-77
2022/06/24 01:06:30;;;;;;;8.80;7.78;;;19.30;99.90;;;;;;5075006;28;20044;-77
2022/06/24 01:08:57;;;;;;;10.60;7.80;;;19.20;99.90;;;;;;5057190;28;20032;-77
2022/06/24 01:11:43;;;;;;;10.25;7.60;;;19.30;99.90;;;;;;5057120;28;20052;-77
2022/06/24 01:14:10;;;;;;;9.25;7.45;;;19.30;99.90;;;;;;5074501;28;20048;-77
2022/06/24 01:16:36;;;;;;;10.18;6.80;;;19.30;99.90;;;;;;5074798;28;20498;-77
2022/06/24 01:19:10;;;;;;;8.23;7.32;;;19.30;99.90;;;;;;5057042;28;20044;-77
2022/06/24 01:21:46;;;;;;;8.82;6.82;;;19.30;99.90;;;;;;5074770;28;20048;-77
2022/06/24 01:24:21;;;;;;;8.43;7.25;;;19.30;99.90;;;;;;5056625;28;20465;-77
2022/06/24 01:26:48;;;;;;;9.27;7.35;;;19.30;99.90;;;;;;5056696;28;20491;-77
2022/06/24 01:29:15;;;;;;;12.88;7.47;;;19.30;99.90;;;;;;5074558;28;20048;-77
2022/06/24 01:31:42;;;;;;;11.38;7.18;;;19.30;99.90;;;;;;5056762;28;20044;-77
2022/06/24 01:34:10;;;;;;;15.70;7.55;;;19.30;99.90;;;;;;5056711;28;20045;-77
2022/06/24 01:36:35;;;;;;;8.32;6.78;;;19.30;99.90;;;;;;5074623;28;20052;-77
2022/06/24 01:39:02;;;;;;;9.73;7.57;;;19.30;99.90;;;;;;5074276;28;20040;-77
2022/06/24 01:41:28;;;;;;;9.90;7.72;;;19.30;99.90;;;;;;5074353;28;20123;-78
2022/06/24 01:43:54;;;;;;;12.00;7.55;;;19.20;99.90;;;;;;5056191;28;20194;-77
2022/06/24 01:46:19;;;;;;;8.77;6.78;;;19.20;99.90;;;;;;5074290;28;20059;-78
2022/06/24 01:48:45;;;;;;;9.00;6.57;;;19.20;99.90;;;;;;5056070;28;20052;-78
2022/06/24 01:51:13;;;;;;;8.63;7.07;;;19.20;99.90;;;;;;5056137;28;20049;-77
2022/06/24 01:53:38;;;;;;;13.30;7.60;;;19.10;99.90;;;;;;5074024;28;20064;-78
2022/06/24 01:56:04;;;;;;;8.05;6.95;;;19.10;99.90;;;;;;5056441;28;20048;-78
2022/06/24 01:58:30;;;;;;;10.50;7.80;;;19.10;99.90;;;;;;5056355;28;20062;-77
2022/06/24 02:00:56;;;;;;;11.25;7.28;;;19.10;99.90;;;;;;5073767;28;20494;-78
2022/06/24 02:03:21;;;;;;;11.18;7.63;;;19.10;99.90;;;;;;5074100;28;20479;-78
2022/06/24 02:05:47;;;;;;;12.35;7.95;;;19.00;99.90;;;;;;5056263;28;20051;-78
2022/06/24 02:08:14;;;;;;;10.80;7.45;;;19.00;99.90;;;;;;5056223;28;20052;-78
2022/06/24 02:13:27;;;;;;;12.93;8.15;;;18.90;99.90;;;;;;5055744;28;20399;-78
2022/06/24 02:16:04;;;;;;;9.75;7.45;;;18.90;99.90;;;;;;5056045;28;20055;-78
2022/06/24 02:18:31;;;;;;;10.23;7.82;;;18.90;99.90;;;;;;5055931;28;20369;-77
2022/06/24 02:20:58;;;;;;;11.25;7.82;;;18.90;99.90;;;;;;5073777;28;20040;-78
2022/06/24 02:23:25;;;;;;;9.60;6.85;;;18.80;99.90;;;;;;5073676;28;20040;-78
2022/06/24 02:25:52;;;;;;;12.25;7.18;;;18.80;99.90;;;;;;5055648;28;20048;-78
2022/06/24 02:28:17;;;;;;;9.52;7.30;;;18.80;99.90;;;;;;5073687;28;20041;-78
2022/06/24 02:30:45;;;;;;;7.75;6.72;;;18.80;99.90;;;;;;5073706;28;20044;-78
2022/06/24 02:33:11;;;;;;;15.00;7.45;;;18.80;99.90;;;;;;5055614;28;20052;-77
2022/06/24 02:35:38;;;;;;;10.43;7.22;;;18.80;99.90;;;;;;5055899;28;20099;-78
2022/06/24 02:38:05;;;;;;;9.85;7.93;;;18.80;99.90;;;;;;5073582;28;20491;-78
2022/06/24 02:40:45;;;;;;;9.38;7.72;;;18.90;99.90;;;;;;5055688;28;20048;-78
2022/06/24 02:43:15;;;;;;;10.10;7.53;;;18.90;99.90;;;;;;5055411;28;20043;-77
2022/06/24 02:45:43;;;;;;;9.68;7.47;;;18.90;99.90;;;;;;5031957;28;20060;-77
2022/06/24 02:48:08;;;;;;;10.35;7.30;;;18.90;99.90;;;;;;5031329;28;20085;-78
2022/06/24 02:50:42;;;;;;;9.13;7.40;;;18.90;99.90;;;;;;5032646;28;20095;-78
2022/06/24 02:53:10;;;;;;;10.48;7.50;;;18.90;99.90;;;;;;5032343;28;20076;-78
2022/06/24 02:55:37;;;;;;;9.73;7.53;;;18.90;99.90;;;;;;5032258;28;20120;-78
2022/06/24 02:58:06;;;;;;;12.27;7.70;;;18.90;99.90;;;;;;5032120;28;20053;-78
2022/06/24 03:00:32;;;;;;;9.07;7.80;;;18.90;99.90;;;;;;5033487;28;20049;-78
2022/06/24 03:02:57;;;;;;;11.60;7.35;;;18.90;99.90;;;;;;5037200;28;20042;-78
2022/06/24 03:05:23;;;;;;;11.30;7.40;;;18.90;99.90;;;;;;5037420;28;20389;-78
2022/06/24 03:07:49;;;;;;;10.68;8.02;;;18.90;99.90;;;;;;5037311;28;20116;-78
2022/06/24 03:10:15;;;;;;;10.35;7.93;;;18.90;99.90;;;;;;5037208;28;20037;-78
2022/06/24 03:12:41;;;;;;;10.05;7.53;;;18.90;99.90;;;;;;5036889;28;20045;-77
2022/06/24 03:15:08;;;;;;;12.68;8.10;;;18.90;99.90;;;;;;5035964;28;20090;-78
2022/06/24 03:17:34;;;;;;;10.07;8.60;;;18.90;99.90;;;;;;5035678;28;20052;-78
2022/06/24 03:20:00;;;;;;;13.70;8.27;;;19.00;99.90;;;;;;5035600;28;20045;-78
2022/06/24 03:22:25;;;;;;;10.52;7.85;;;18.90;99.90;;;;;;5035836;28;20056;-78
2022/06/24 03:24:52;;;;;;;10.80;7.15;;;19.00;99.90;;;;;;5037081;28;20038;-78
2022/06/24 03:27:17;;;;;;;10.98;7.82;;;19.00;99.90;;;;;;5035593;28;20051;-78
2022/06/24 03:29:43;;;;;;;11.82;8.27;;;19.00;99.90;;;;;;5035434;28;20045;-78
2022/06/24 03:32:09;;;;;;;10.80;8.20;;;19.00;99.90;;;;;;5035367;28;20099;-78
2022/06/24 03:34:34;;;;;;;9.63;8.15;;;19.00;99.90;;;;;;5036493;28;20103;-78
2022/06/24 03:37:01;;;;;;;13.82;8.50;;;19.00;99.90;;;;;;5036829;28;20047;-78
2022/06/24 03:39:26;;;;;;;11.60;8.73;;;18.90;99.90;;;;;;5036682;28;20125;-78
2022/06/24 03:41:52;;;;;;;9.20;8.15;;;19.00;99.90;;;;;;5035463;28;20228;-77
2022/06/24 03:44:17;;;;;;;9.93;8.02;;;19.00;99.90;;;;;;5053240;28;20114;-77
2022/06/24 03:46:43;;;;;;;12.23;8.38;;;19.00;99.90;;;;;;5076239;28;20053;-78
2022/06/24 03:49:09;;;;;;;15.30;8.43;;;19.00;99.90;;;;;;5076292;28;20040;-77
2022/06/24 03:51:35;;;;;;;14.05;8.43;;;18.90;99.90;;;;;;5076320;28;20395;-77
2022/06/24 03:54:01;;;;;;;9.27;7.47;;;19.00;99.90;;;;;;5058603;28;20125;-77
2022/06/24 03:56:27;;;;;;;11.68;8.40;;;19.00;99.90;;;;;;5058483;28;20562;-77
2022/06/24 03:58:53;;;;;;;9.70;7.72;;;18.90;99.90;;;;;;5076316;28;20044;-77
2022/06/24 04:01:18;;;;;;;9.30;7.70;;;19.00;99.90;;;;;;5076275;28;20468;-77
2022/06/24 04:03:44;;;;;;;9.68;8.25;;;19.00;99.90;;;;;;5076178;28;20467;-77
2022/06/24 04:06:10;;;;;;;10.15;8.10;;;19.00;99.90;;;;;;5058324;28;20056;-77
2022/06/24 04:08:35;;;;;;;10.02;8.45;;;19.00;99.90;;;;;;5076045;28;20052;-77
2022/06/24 04:11:11;;;;;;;10.45;8.40;;;19.00;99.90;;;;;;5075681;28;20048;-77
2022/06/24 04:13:37;;;;;;;11.57;8.27;;;19.00;99.90;;;;;;5075168;28;20098;-77
2022/06/24 04:16:03;;;;;;;9.75;8.13;;;19.10;99.90;;;;;;5075850;28;20044;-77
2022/06/24 04:18:28;;;;;;;10.25;8.38;;;19.10;99.90;;;;;;5058064;28;20136;-78
2022/06/24 04:20:54;;;;;;;10.48;8.23;;;19.10;99.90;;;;;;5075908;28;20513;-78
2022/06/24 04:23:19;;;;;;;10.93;8.80;;;19.20;99.90;;;;;;5058064;28;20434;-77
2022/06/24 04:25:49;;;;;;;13.77;9.10;;;19.30;99.90;;;;;;5057675;28;20037;-77
2022/06/24 04:28:15;;;;;;;10.98;8.60;;;19.30;99.90;;;;;;5057648;28;20045;-77
2022/06/24 04:30:41;;;;;;;9.95;7.93;;;19.40;99.90;;;;;;5075456;28;20098;-78
2022/06/24 04:33:06;;;;;;;11.18;8.73;;;19.40;99.90;;;;;;5075392;28;20482;-77
2022/06/24 04:35:32;;;;;;;10.30;9.20;;;19.50;99.90;;;;;;5075703;28;20480;-77
2022/06/24 04:37:57;;;;;;;12.45;9.30;;;19.60;99.90;;;;;;5075498;28;20376;-77
2022/06/24 04:40:23;;;;;;;13.75;10.20;;;19.60;99.90;;;;;;5075427;28;20105;-77
2022/06/24 04:42:49;;;;;;;19.25;10.23;;;19.70;99.90;;;;;;5075380;28;20040;-78
2022/06/24 04:45:15;;;;;;;12.93;10.68;;;19.70;99.90;;;;;;5057109;28;20053;-78
2022/06/24 04:47:41;;;;;;;15.70;11.90;;;19.80;99.90;;;;;;5075466;28;20175;-77
2022/06/24 04:50:08;;;;;;;13.57;11.45;;;19.80;99.90;;;;;;5075353;28;20159;-77
2022/06/24 04:52:35;;;;;;;13.95;11.40;;;19.90;99.90;;;;;;5074967;28;20135;-78
2022/06/24 04:55:01;;;;;;;13.02;11.10;;;20.00;99.90;;;;;;5057504;28;20078;-78
2022/06/24 04:57:27;;;;;;;13.85;11.68;;;20.10;99.90;;;;;;5074923;28;20492;-78
2022/06/24 04:59:53;;;;;;;15.43;12.32;;;20.20;99.90;;;;;;5057228;28;20131;-77
2022/06/24 05:02:19;;;;;;;14.23;11.50;;;20.20;99.90;;;;;;5057320;28;20438;-77
2022/06/24 05:04:45;;;;;;;14.70;10.90;;;20.20;99.90;;;;;;5074936;28;20423;-77
2022/06/24 05:07:10;;;;;;;19.83;10.80;;;20.30;99.90;;;;;;5057059;28;20044;-78
2022/06/24 05:09:36;;;;;;;16.08;11.48;;;20.30;99.90;;;;;;5074951;28;20391;-77
2022/06/24 05:12:03;;;;;;;18.17;12.05;;;20.40;99.90;;;;;;5074874;28;20080;-78
2022/06/24 05:14:29;;;;;;;17.90;14.45;;;20.40;99.90;;;;;;5056965;28;20515;-77
2022/06/24 05:16:55;;;;;;;23.67;18.02;;;20.40;99.90;;;;;;5074578;28;20454;-77
2022/06/24 05:19:21;;;;;;;26.80;20.40;;;20.40;99.90;;;;;;5074475;28;20036;-78
2022/06/24 05:21:47;;;;;;;37.75;23.63;;;20.50;99.90;;;;;;5056820;28;20045;-78
2022/06/24 05:24:13;;;;;;;37.58;25.38;;;20.60;99.90;;;;;;5056407;28;20504;-77
2022/06/24 05:26:44;;;;;;;40.22;25.02;;;20.70;99.90;;;;;;5056509;28;20400;-78
2022/06/24 05:29:10;;;;;;;34.45;22.40;;;20.70;99.90;;;;;;5074438;28;20079;-78
2022/06/24 05:31:36;;;;;;;35.25;22.38;;;20.80;99.90;;;;;;5074495;28;20045;-77
2022/06/24 05:34:02;;;;;;;31.92;20.20;;;20.90;99.90;;;;;;5056492;28;20045;-79
2022/06/24 05:36:28;;;;;;;24.25;16.80;;;20.80;99.90;;;;;;5074417;28;20411;-78
2022/06/24 05:38:54;;;;;;;25.08;14.48;;;20.90;99.90;;;;;;5074390;28;20511;-79
2022/06/24 05:41:20;;;;;;;29.08;13.68;;;20.80;99.90;;;;;;5056277;28;20044;-79
2022/06/24 05:43:46;;;;;;;26.10;13.05;;;20.80;99.90;;;;;;5056147;28;20071;-79
2022/06/24 05:46:13;;;;;;;31.77;11.40;;;20.90;99.90;;;;;;5056467;28;20044;-78
2022/06/24 05:48:39;;;;;;;26.02;10.85;;;20.90;99.90;;;;;;5074180;28;20052;-78
2022/06/24 05:51:16;;;;;;;28.90;10.63;;;20.80;99.90;;;;;;5074158;28;20037;-78
2022/06/24 05:56:28;;;;;;;32.13;11.70;;;20.80;99.90;;;;;;5073790;28;20495;-78
2022/06/24 05:58:54;;;;;;;30.65;10.45;;;20.70;99.90;;;;;;5073987;28;20170;-78
2022/06/24 06:01:20;;;;;;;36.28;9.27;;;20.80;99.90;;;;;;5055908;28;20123;-78
2022/06/24 06:03:47;;;;;;;28.90;9.20;;;20.80;99.90;;;;;;5073801;28;20055;-78
2022/06/24 06:06:13;;;;;;;30.23;9.82;;;20.80;99.90;;;;;;5073759;28;20506;-78
2022/06/24 06:08:39;;;;;;;31.13;9.43;;;20.80;99.90;;;;;;5055437;28;20055;-77
2022/06/24 06:11:21;;;;;;;38.92;10.27;;;20.70;99.90;;;;;;5064848;28;20044;-78
2022/06/24 06:13:49;;;;;;;35.13;10.25;;;20.60;99.90;;;;;;5053629;28;20081;-78
2022/06/24 06:16:15;;;;;;;31.10;9.43;;;20.60;99.90;;;;;;5036069;28;20040;-78
2022/06/24 06:18:41;;;;;;;26.75;8.45;;;20.50;99.90;;;;;;5035814;28;20193;-77
2022/06/24 06:21:08;;;;;;;32.50;10.35;;;20.40;99.90;;;;;;5053250;28;20511;-78
2022/06/24 06:23:35;;;;;;;33.00;9.30;;;20.30;99.90;;;;;;5064635;28;20391;-76
2022/06/24 06:26:03;;;;;;;38.33;10.82;;;20.30;99.90;;;;;;5035710;28;20528;-77
2022/06/24 06:28:29;;;;;;;34.65;11.43;;;20.30;99.90;;;;;;5053302;28;20041;-77
2022/06/24 06:30:54;;;;;;;28.58;9.70;;;20.30;99.90;;;;;;5053240;28;20052;-77
2022/06/24 06:33:20;;;;;;;35.38;10.63;;;20.20;99.90;;;;;;5035256;28;20048;-77
2022/06/24 06:35:46;;;;;;;31.33;9.70;;;20.00;99.90;;;;;;5034536;28;20067;-77
2022/06/24 06:38:12;;;;;;;22.70;8.18;;;20.00;99.90;;;;;;5035216;28;20400;-77
2022/06/24 06:40:38;;;;;;;24.75;9.07;;;19.90;99.90;;;;;;5053101;28;20054;-77
2022/06/24 06:43:05;;;;;;;20.42;8.30;;;19.70;99.90;;;;;;5035453;28;20140;-77
2022/06/24 06:45:33;;;;;;;24.85;8.32;;;19.60;99.90;;;;;;5052981;28;20087;-77
2022/06/24 06:47:58;;;;;;;27.15;9.07;;;19.50;99.90;;;;;;5053052;28;20047;-76
2022/06/24 06:50:24;;;;;;;34.75;10.88;;;19.30;99.90;;;;;;5053340;28;20037;-76
2022/06/24 06:52:50;;;;;;;27.05;9.10;;;19.30;99.90;;;;;;5053144;28;20498;-75
2022/06/24 06:55:16;;;;;;;29.20;9.52;;;19.40;99.90;;;;;;5035388;28;20049;-75
2022/06/24 06:57:41;;;;;;;41.28;11.55;;;19.30;99.90;;;;;;5035199;28;20040;-75
2022/06/24 07:00:09;;;;;;;30.05;10.52;;;19.30;99.90;;;;;;5052969;28;20182;-75
2022/06/24 07:02:35;;;;;;;26.55;10.80;;;19.20;99.90;;;;;;5035269;28;20400;-75
2022/06/24 07:05:01;;;;;;;30.52;10.32;;;19.20;99.90;;;;;;5053098;28;20041;-75
2022/06/24 07:07:26;;;;;;;30.65;10.95;;;19.30;99.90;;;;;;5053007;28;20135;-75
2022/06/24 07:09:54;;;;;;;24.70;9.57;;;19.30;99.90;;;;;;5052810;28;20127;-75
2022/06/24 07:12:20;;;;;;;25.30;10.40;;;19.40;99.90;;;;;;5034759;28;20045;-75
2022/06/24 07:14:46;;;;;;;29.95;9.98;;;19.40;99.90;;;;;;5034922;28;20048;-76
2022/06/24 07:17:11;;;;;;;30.80;10.27;;;19.50;99.90;;;;;;5052987;28;20037;-75
2022/06/24 07:19:37;;;;;;;24.30;10.60;;;19.50;99.90;;;;;;5052504;28;20047;-75
2022/06/24 07:22:03;;;;;;;22.08;10.25;;;19.40;99.90;;;;;;5054381;28;20583;-75
2022/06/24 07:24:30;;;;;;;26.35;10.77;;;19.50;99.90;;;;;;5072891;28;20081;-76
2022/06/24 07:26:56;;;;;;;26.17;9.60;;;19.50;99.90;;;;;;5072546;28;20407;-75
2022/06/24 07:29:22;;;;;;;31.95;10.05;;;19.40;99.90;;;;;;5072925;28;20457;-75
2022/06/24 07:31:48;;;;;;;29.13;10.02;;;19.30;99.90;;;;;;5072815;28;20114;-75
2022/06/24 07:34:17;;;;;;;22.35;8.98;;;19.30;99.90;;;;;;5071698;28;20568;-75
2022/06/24 07:36:43;;;;;;;19.23;8.85;;;19.20;99.90;;;;;;5071629;28;20055;-75
2022/06/24 07:39:09;;;;;;;17.77;8.50;;;19.10;99.90;;;;;;5072771;28;20437;-76
2022/06/24 07:41:35;;;;;;;20.08;9.18;;;19.00;99.90;;;;;;5072426;28;20053;-75
2022/06/24 07:44:01;;;;;;;23.55;9.23;;;19.00;99.90;;;;;;5071155;28;20136;-75
2022/06/24 07:46:27;;;;;;;20.30;9.02;;;18.90;99.90;;;;;;5073786;28;20139;-76
2022/06/24 07:48:53;;;;;;;23.70;9.95;;;18.90;99.90;;;;;;5075962;28;20526;-76
2022/06/24 07:51:19;;;;;;;21.48;9.48;;;18.90;99.90;;;;;;5072588;28;20036;-76
2022/06/24 07:53:46;;;;;;;26.42;11.02;;;18.90;99.90;;;;;;5076130;28;20045;-75
2022/06/24 07:58:57;;;;;;;24.10;10.50;;;18.90;99.90;;;;;;5075387;28;20071;-75
2022/06/24 08:01:23;;;;;;;21.95;9.95;;;18.90;99.90;;;;;;5074009;28;20472;-75
2022/06/24 08:03:49;;;;;;;20.15;10.32;;;18.90;99.90;;;;;;5056619;28;20407;-75
2022/06/24 08:06:15;;;;;;;26.40;10.75;;;18.80;99.90;;;;;;5058050;28;20041;-75
2022/06/24 08:08:41;;;;;;;20.08;10.23;;;18.80;99.90;;;;;;5075817;28;20510;-75
2022/06/24 08:11:07;;;;;;;25.08;11.00;;;18.80;99.90;;;;;;5075477;28;20048;-75
2022/06/24 08:13:32;;;;;;;26.35;11.30;;;18.80;99.90;;;;;;5075887;28;20500;-76
2022/06/24 08:15:59;;;;;;;26.60;11.40;;;18.80;99.90;;;;;;5075554;28;20094;-76
2022/06/24 08:18:25;;;;;;;23.85;10.80;;;18.90;99.90;;;;;;5057540;28;20098;-76
2022/06/24 08:20:51;;;;;;;22.90;11.30;;;18.90;99.90;;;;;;5075552;28;20052;-75
2022/06/24 08:23:17;;;;;;;20.35;10.77;;;18.90;99.90;;;;;;5057588;28;20090;-76
2022/06/24 08:25:42;;;;;;;23.77;10.40;;;18.90;99.90;;;;;;5057533;28;20044;-76
2022/06/24 08:28:08;;;;;;;22.95;10.60;;;18.90;99.90;;;;;;5075541;28;20036;-76
2022/06/24 08:30:34;;;;;;;24.98;10.98;;;18.90;99.90;;;;;;5075419;28;20487;-76
2022/06/24 08:33:03;;;;;;;25.25;11.68;;;19.00;99.90;;;;;;5057286;28;20055;-76
2022/06/24 08:35:29;;;;;;;21.33;11.30;;;19.00;99.90;;;;;;5057290;28;20076;-76
2022/06/24 08:37:56;;;;;;;20.80;10.75;;;19.10;99.90;;;;;;5057491;28;20044;-76
2022/06/24 08:40:25;;;;;;;21.35;10.98;;;19.00;99.90;;;;;;5075215;28;20043;-79
2022/06/24 08:42:55;;;;;;;16.75;10.65;;;19.00;99.90;;;;;;5050465;28;20119;-76
2022/06/24 08:45:22;;;;;;;19.58;10.55;;;19.10;99.90;;;;;;5043571;28;20088;-86
2022/06/24 08:47:49;;;;;;;16.15;9.63;;;19.10;99.90;;;;;;5037251;28;20083;-85
2022/06/24 08:50:16;;;;;;;18.77;10.00;;;19.10;99.90;;;;;;5037156;28;20049;-88
2022/06/24 08:52:53;;;;;;;22.33;10.15;;;19.10;99.90;;;;;;5037141;28;20124;-83
2022/06/24 08:55:19;;;;;;;19.27;9.48;;;19.20;99.90;;;;;;5055116;28;20044;-84
2022/06/24 08:57:46;;;;;;;21.67;10.88;;;19.10;99.90;;;;;;5054329;28;20123;-85
2022/06/24 09:00:13;;;;;;;21.38;10.77;;;19.10;99.90;;;;;;5054744;28;20402;-84
2022/06/24 09:02:39;;;;;;;26.33;10.70;;;19.10;99.90;;;;;;5054866;28;20052;-83
2022/06/24 09:05:12;;;;;;;17.35;10.52;;;19.00;99.90;;;;;;5036775;28;20515;-84
2022/06/24 09:07:38;;;;;;;21.05;10.27;;;19.00;99.90;;;;;;5054904;28;20037;-83
2022/06/24 09:10:06;;;;;;;18.38;11.15;;;19.00;99.90;;;;;;5054662;28;20056;-82
2022/06/24 09:12:47;;;;;;;22.23;11.07;;;19.00;99.90;;;;;;5054739;28;20040;-86
2022/06/24 09:15:14;;;;;;;23.67;11.32;;;19.00;99.90;;;;;;5054511;28;20481;-83
2022/06/24 09:17:40;;;;;;;26.30;12.55;;;19.00;99.90;;;;;;5036623;28;20048;-83
2022/06/24 09:20:28;;;;;;;24.27;11.80;;;19.10;99.90;;;;;;5054372;28;20597;-84
2022/06/24 09:23:09;;;;;;;21.05;10.93;;;19.20;99.90;;;;;;5036570;28;20110;-84
2022/06/24 09:25:49;;;;;;;28.08;13.05;;;19.20;99.90;;;;;;5054337;28;20059;-84
2022/06/24 09:28:24;;;;;;;24.17;12.32;;;19.20;99.90;;;;;;5036474;28;20450;-85
2022/06/24 09:30:59;;;;;;;25.73;12.07;;;19.20;99.90;;;;;;5036349;28;20052;-75
2022/06/24 09:33:24;;;;;;;24.50;11.68;;;19.20;99.90;;;;;;5036364;28;20060;-75
2022/06/24 09:35:59;;;;;;;23.63;12.27;;;19.30;99.90;;;;;;5036505;28;20037;-75
2022/06/24 09:38:25;;;;;;;29.63;13.05;;;19.30;99.90;;;;;;5054238;28;20044;-85
2022/06/24 09:41:04;;;;;;;28.27;13.73;;;19.20;99.90;;;;;;5054021;28;20068;-85
2022/06/24 09:43:31;;;;;;;30.23;12.60;;;19.30;99.90;;;;;;5054029;28;20037;-84
2022/06/24 09:45:59;;;;;;;21.73;11.52;;;19.20;99.90;;;;;;5054247;28;20084;-84
2022/06/24 09:48:32;;;;;;;27.13;12.50;;;19.30;99.90;;;;;;5054160;28;20052;-82
2022/06/24 09:51:03;;;;;;;20.17;11.57;;;19.30;99.90;;;;;;5035941;28;20123;-84
2022/06/24 09:53:35;;;;;;;23.35;11.80;;;19.30;99.90;;;;;;5053591;28;20429;-85
2022/06/24 09:56:01;;;;;;;19.92;12.40;;;19.30;99.90;;;;;;5036230;28;20045;-83
2022/06/24 09:58:27;;;;;;;19.98;12.52;;;19.20;99.90;;;;;;5036130;28;20049;-86
2022/06/24 10:00:53;;;;;;;21.52;12.93;;;19.30;99.90;;;;;;5035812;28;20049;-88
2022/06/24 10:03:19;;;;;;;18.73;12.18;;;19.20;99.90;;;;;;5035805;28;20041;-86
2022/06/24 10:05:50;;;;;;;26.23;13.18;;;19.20;99.90;;;;;;5035929;28;20052;-83
2022/06/24 10:08:17;;;;;;;20.27;12.50;;;19.30;99.90;;;;;;5053521;28;20051;-85
2022/06/24 10:10:48;;;;;;;23.65;13.40;;;19.20;99.90;;;;;;5035690;28;20045;-91
2022/06/24 10:13:25;;;;;;;25.33;13.60;;;19.20;99.90;;;;;;5035714;28;20098;-85
2022/06/24 10:15:52;;;;;;;23.48;13.02;;;19.20;99.90;;;;;;5036019;28;20052;-83
2022/06/24 10:18:19;;;;;;;19.38;12.25;;;19.20;99.90;;;;;;5053478;28;20532;-87
2022/06/24 10:20:50;;;;;;;24.27;13.27;;;19.10;99.90;;;;;;5035726;28;20044;-82
2022/06/24 10:23:43;;;;;;;21.17;11.50;;;19.10;99.90;;;;;;5035683;28;20055;-84
2022/06/24 10:26:13;;;;;;;;;;;19.10;99.90;;;;;;5053783;28;20048;-85
2022/06/24 10:29:00;;;;;;;18.92;11.68;;;19.10;99.90;;;;;;5053254;28;20360;-86
2022/06/24 10:31:45;;;;;;;21.20;12.75;;;19.00;99.90;;;;;;5035336;28;20064;-84
2022/06/24 10:34:13;;;;;;;19.90;11.20;;;19.00;99.90;;;;;;5053264;28;20114;-74
2022/06/24 10:36:38;;;;;;;20.23;11.90;;;19.00;99.90;;;;;;5053441;28;20052;-75
2022/06/24 10:39:15;;;;;;;21.45;11.23;;;19.00;99.90;;;;;;5053247;28;20044;-75
2022/06/24 10:41:41;;;;;;;21.88;12.98;;;18.90;99.90;;;;;;5035595;28;20106;-75
2022/06/24 10:44:26;;;;;;;23.48;12.68;;;18.90;99.90;;;;;;5052980;28;20130;-75
2022/06/24 10:47:04;;;;;;;18.20;9.38;;;18.80;99.90;;;;;;5053309;28;20045;-75
2022/06/24 10:49:52;;;;;;;15.98;9.70;;;18.70;99.90;;;;;;5035227;28;20044;-76
2022/06/24 10:52:47;;;;;;;18.13;9.77;;;18.60;99.90;;;;;;5035010;28;20049;-75
2022/06/24 10:55:28;;;;;;;14.40;7.85;;;18.60;99.90;;;;;;5059447;28;20053;-75
2022/06/24 10:57:58;;;;;;;12.38;7.30;;;18.60;99.90;;;;;;5071730;28;20502;-76
2022/06/24 11:00:39;;;;;;;13.23;6.97;;;18.40;99.90;;;;;;5071955;28;20447;-75
2022/06/24 11:03:04;;;;;;;14.30;7.13;;;18.40;99.90;;;;;;5072093;28;20131;-75
2022/06/24 11:05:32;;;;;;;15.73;7.05;;;18.40;99.90;;;;;;5073067;28;20119;-75
2022/06/24 11:07:58;;;;;;;12.18;6.82;;;18.20;99.90;;;;;;5072870;28;20048;-75
2022/06/24 11:10:26;;;;;;;11.50;6.60;;;18.20;99.90;;;;;;5072988;28;20052;-75
2022/06/24 11:13:00;;;;;;;12.63;7.43;;;18.20;99.90;;;;;;5071470;28;20056;-75
2022/06/24 11:15:54;;;;;;;13.40;7.45;;;18.30;99.90;;;;;;5073273;28;20040;-75
2022/06/24 11:18:29;;;;;;;16.73;7.50;;;18.30;99.90;;;;;;5073117;28;20093;-75
2022/06/24 11:21:09;;;;;;;16.15;8.13;;;18.30;99.90;;;;;;5071836;28;20129;-75
2022/06/24 11:23:40;;;;;;;17.27;7.43;;;18.30;99.90;;;;;;5076378;28;20041;-75
2022/06/24 11:26:12;;;;;;;13.50;6.97;;;18.30;99.90;;;;;;5067486;28;20044;-75
2022/06/24 11:28:39;;;;;;;15.30;6.50;;;18.40;99.90;;;;;;5058893;28;20059;-75
2022/06/24 11:31:14;;;;;;;15.57;6.90;;;18.30;99.90;;;;;;5058656;28;20071;-75
2022/06/24 11:33:40;;;;;;;14.77;6.13;;;18.30;99.90;;;;;;5059183;28;20495;-75
2022/06/24 11:36:07;;;;;;;11.43;6.43;;;18.30;99.90;;;;;;5076268;28;20052;-75
2022/06/24 11:38:36;;;;;;;13.63;6.45;;;18.40;99.90;;;;;;5076373;28;20533;-75
2022/06/24 11:41:02;;;;;;;18.75;7.03;;;18.40;99.90;;;;;;5076265;28;20416;-75
2022/06/24 11:43:28;;;;;;;16.25;8.20;;;18.40;99.90;;;;;;5076200;28;20036;-75
2022/06/24 11:45:57;;;;;;;16.48;8.68;;;18.40;99.90;;;;;;5076289;28;20454;-75
2022/06/24 11:48:24;;;;;;;13.32;7.43;;;18.40;99.90;;;;;;5075196;28;20098;-75
2022/06/24 11:50:53;;;;;;;15.23;7.38;;;18.30;99.90;;;;;;5074780;28;20044;-75
2022/06/24 11:53:24;;;;;;;15.40;8.30;;;18.30;99.90;;;;;;5065758;28;20040;-75
2022/06/24 11:55:50;;;;;;;11.63;7.20;;;18.40;99.90;;;;;;5070616;28;20102;-75
2022/06/24 11:58:18;;;;;;;15.55;6.78;;;18.30;99.90;;;;;;5045953;28;20045;-75
2022/06/24 12:00:45;;;;;;;11.63;7.20;;;18.30;99.90;;;;;;5046739;28;20049;-75
2022/06/24 12:03:12;;;;;;;13.63;6.18;;;18.30;99.90;;;;;;5047743;28;20193;-75
2022/06/24 12:05:40;;;;;;;15.00;6.45;;;18.30;99.90;;;;;;5070803;28;20560;-74
2022/06/24 12:08:07;;;;;;;12.60;6.38;;;18.30;99.90;;;;;;5064366;28;20044;-76
2022/06/24 12:10:33;;;;;;;11.82;6.93;;;18.30;99.90;;;;;;5072528;28;20052;-76
2022/06/24 12:13:05;;;;;;;10.50;6.50;;;18.40;99.90;;;;;;5057869;28;20056;-76
2022/06/24 12:15:37;;;;;;;13.35;6.95;;;18.40;99.90;;;;;;5058326;28;20083;-76
2022/06/24 12:18:21;;;;;;;12.57;6.80;;;18.40;99.90;;;;;;5057899;28;20052;-76
2022/06/24 12:21:06;;;;;;;13.70;7.25;;;18.40;99.90;;;;;;5076063;28;20044;-77
2022/06/24 12:23:32;;;;;;;18.90;7.28;;;18.40;99.90;;;;;;5075131;28;20451;-77
2022/06/24 12:25:58;;;;;;;12.88;6.63;;;18.40;99.90;;;;;;5067257;28;20080;-77
2022/06/24 12:28:26;;;;;;;15.73;6.65;;;18.40;99.90;;;;;;5075802;28;20080;-77
2022/06/24 12:31:01;;;;;;;12.57;6.95;;;18.40;99.90;;;;;;5057959;28;20048;-77
2022/06/24 12:33:28;;;;;;;14.40;6.82;;;18.50;99.90;;;;;;5074064;28;20048;-77
2022/06/24 12:36:11;;;;;;;14.57;6.97;;;18.50;99.90;;;;;;5063518;28;20484;-77
2022/06/24 12:38:39;;;;;;;20.88;6.10;;;18.50;99.90;;;;;;5074551;28;20086;-77
2022/06/24 12:41:10;;;;;;;12.75;6.93;;;18.60;99.90;;;;;;5072128;28;20124;-77
2022/06/24 12:43:49;;;;;;;16.17;6.93;;;18.70;99.90;;;;;;5057850;28;20102;-77
2022/06/24 12:46:15;;;;;;;14.52;7.18;;;18.70;99.90;;;;;;5054375;28;20503;-77
2022/06/24 12:51:25;;;;;;;10.48;6.75;;;18.90;99.90;;;;;;5054183;28;20182;-78
2022/06/24 12:53:52;;;;;;;13.45;6.82;;;18.90;99.90;;;;;;5036522;28;20517;-77